Time;durP1;ratioP1;P1;durP2;ratioP2;P2;SDS_P1;SDS_P2;PMS_P1;PMS_P2;Temp;Humidity;BMP_temperature;BMP_pressure;BME280_temperature;BME280_humidity;BME280_pressure;Samples;Min_cycle;Max_cycle;Signal;HPM_P1;HPM_P2
2023/09/25 00:02:27;;;;;;;7.57;0.93;;;;;;;19.18;78.29;101058.09;7357656;19;20027;-65
2023/09/25 00:04:54;;;;;;;6.95;0.90;;;;;;;19.19;78.00;101066.91;7358363;19;20032;-65
2023/09/25 00:07:20;;;;;;;6.63;1.08;;;;;;;19.19;78.54;101073.09;7361994;19;20558;-65
2023/09/25 00:09:47;;;;;;;7.13;1.20;;;;;;;19.19;78.53;101064.25;7360970;19;20778;-65
2023/09/25 00:12:14;;;;;;;7.38;1.23;;;;;;;19.20;78.95;101063.19;7359597;19;20010;-65
2023/09/25 00:14:41;;;;;;;8.45;1.05;;;;;;;19.19;79.10;101065.06;7360826;19;20023;-66
2023/09/25 00:17:09;;;;;;;6.10;1.13;;;;;;;19.21;79.72;101081.69;7357676;19;20516;-65
2023/09/25 00:19:35;;;;;;;7.30;1.10;;;;;;;19.22;79.69;101078.00;7366182;19;20051;-65
2023/09/25 00:22:04;;;;;;;8.57;1.30;;;;;;;19.25;79.02;101081.31;7360184;19;20086;-65
2023/09/25 00:24:31;;;;;;;5.03;0.93;;;;;;;19.23;79.22;101086.84;7361526;19;20025;-65
2023/09/25 00:26:58;;;;;;;3.83;0.75;;;;;;;19.23;79.15;101086.84;7355007;19;20524;-65
2023/09/25 00:29:25;;;;;;;6.15;0.90;;;;;;;19.24;79.30;101088.47;7359380;19;20070;-65
2023/09/25 00:31:52;;;;;;;10.73;1.08;;;;;;;19.26;79.33;101089.09;7359472;19;20431;-65
2023/09/25 00:34:19;;;;;;;4.97;1.00;;;;;;;19.27;79.52;101089.91;7362071;19;20010;-65
2023/09/25 00:36:46;;;;;;;10.23;1.48;;;;;;;19.32;81.42;101100.78;7359021;19;20010;-64
2023/09/25 00:39:13;;;;;;;5.32;0.80;;;;;;;19.34;81.56;101104.09;7340027;19;20018;-65
2023/09/25 00:41:40;;;;;;;7.93;1.33;;;;;;;19.31;80.10;101112.50;7358168;19;20007;-64
2023/09/25 00:44:07;;;;;;;6.70;0.80;;;;;;;19.29;80.21;101103.88;7356999;19;20006;-64
2023/09/25 00:46:35;;;;;;;8.80;1.02;;;;;;;19.30;80.85;101106.31;7353463;19;20014;-65
2023/09/25 00:49:02;;;;;;;7.78;1.00;;;;;;;19.30;80.42;101106.31;7354032;19;20014;-65
2023/09/25 00:51:29;;;;;;;5.55;0.90;;;;;;;19.29;80.29;101098.53;7360983;19;20025;-64
2023/09/25 00:53:57;;;;;;;6.50;1.00;;;;;;;19.27;80.95;101112.09;7358571;19;20636;-66
2023/09/25 00:56:24;;;;;;;7.03;0.90;;;;;;;19.29;81.70;101114.56;7365590;19;20015;-65
2023/09/25 00:58:52;;;;;;;6.13;1.02;;;;;;;19.30;82.21;101117.00;7356288;19;20086;-65
2023/09/25 01:01:19;;;;;;;5.95;0.95;;;;;;;19.29;83.00;101112.72;7356875;19;20059;-64
2023/09/25 01:03:47;;;;;;;5.43;0.80;;;;;;;19.30;84.06;101125.00;7356288;19;20014;-64
2023/09/25 01:06:18;;;;;;;10.68;1.38;;;;;;;19.23;85.80;101122.34;7347597;19;20015;-65
2023/09/25 01:08:46;;;;;;;5.40;1.10;;;;;;;19.18;87.38;101129.31;7359989;19;20367;-65
2023/09/25 01:11:13;;;;;;;4.40;1.35;;;;;;;19.15;88.72;101125.19;7358188;19;20015;-66
2023/09/25 01:13:41;;;;;;;6.00;1.73;;;;;;;19.15;90.03;101119.84;7358681;19;20010;-65
2023/09/25 01:16:08;;;;;;;6.15;1.42;;;;;;;19.14;89.32;101128.06;7357977;19;20027;-65
2023/09/25 01:18:35;;;;;;;9.45;1.50;;;;;;;19.15;90.05;101130.53;7358493;19;20018;-65
2023/09/25 01:21:03;;;;;;;10.68;1.00;;;;;;;19.17;90.93;101119.66;7358035;19;20353;-64
2023/09/25 01:23:30;;;;;;;8.10;1.30;;;;;;;19.16;91.21;101118.81;7355429;19;20120;-64
2023/09/25 01:25:58;;;;;;;7.03;1.20;;;;;;;19.14;90.31;101118.22;7357078;19;20050;-64
2023/09/25 01:28:25;;;;;;;7.18;1.48;;;;;;;19.12;89.90;101122.09;7357198;19;20019;-65
2023/09/25 01:30:54;;;;;;;9.10;1.17;;;;;;;19.11;89.75;101121.28;7342259;19;20153;-65
2023/09/25 01:33:21;;;;;;;5.97;1.15;;;;;;;19.10;90.15;101116.97;7353658;19;20671;-65
2023/09/25 01:35:48;;;;;;;4.57;0.80;;;;;;;19.10;89.82;101122.28;7355977;19;20106;-65
2023/09/25 01:38:15;;;;;;;6.18;1.10;;;;;;;19.07;89.80;101117.38;7358927;19;21193;-64
2023/09/25 01:40:42;;;;;;;9.18;1.23;;;;;;;19.08;90.37;101128.88;7363309;19;20644;-64
2023/09/25 01:43:09;;;;;;;6.53;0.80;;;;;;;19.05;90.08;101122.06;7353652;19;21319;-65
2023/09/25 01:45:36;;;;;;;7.38;0.95;;;;;;;19.07;91.16;101128.03;7356749;19;20478;-64
2023/09/25 01:48:04;;;;;;;5.05;1.00;;;;;;;19.06;89.99;101121.06;7349948;19;20023;-65
2023/09/25 01:50:32;;;;;;;6.00;1.00;;;;;;;19.05;90.08;101134.59;7353628;19;20157;-65
2023/09/25 01:53:01;;;;;;;5.40;0.90;;;;;;;19.06;90.73;101131.72;7353874;19;20077;-66
2023/09/25 01:55:31;;;;;;;7.53;1.00;;;;;;;19.08;91.47;101129.69;7362408;19;20102;-65
2023/09/25 01:57:58;;;;;;;7.63;0.93;;;;;;;19.07;91.70;101136.06;7352056;19;20051;-66
2023/09/25 02:00:32;;;;;;;9.07;1.25;;;;;;;19.11;92.93;101144.47;7358629;19;20316;-65
2023/09/25 02:02:59;;;;;;;7.38;1.10;;;;;;;19.12;92.80;101132.78;7360278;19;20474;-65
2023/09/25 02:05:26;;;;;;;8.35;1.38;;;;;;;19.13;92.96;101140.59;7358182;19;20374;-64
2023/09/25 02:07:53;;;;;;;8.73;1.00;;;;;;;19.09;92.42;101131.34;7353620;19;20018;-64
2023/09/25 02:10:21;;;;;;;4.80;1.80;;;;;;;19.14;93.70;101138.75;7357728;19;20018;-65
2023/09/25 02:12:48;;;;;;;5.78;1.17;;;;;;;19.16;94.20;101139.34;7354246;19;20351;-65
2023/09/25 02:15:15;;;;;;;7.30;1.35;;;;;;;19.16;94.60;101139.34;7362204;19;20018;-65
2023/09/25 02:17:43;;;;;;;7.60;1.23;;;;;;;19.13;93.76;101142.44;7357243;19;20029;-65
2023/09/25 02:22:38;;;;;;;7.32;1.60;;;;;;;19.09;94.99;101134.03;7355522;19;20014;-64
2023/09/25 02:25:05;;;;;;;11.32;1.27;;;;;;;19.10;94.81;101126.81;7335959;19;20024;-65
2023/09/25 02:27:32;;;;;;;7.57;1.33;;;;;;;19.10;95.40;101132.97;7358938;19;20018;-66
2023/09/25 02:30:00;;;;;;;7.60;1.20;;;;;;;19.12;95.79;101130.09;7354717;19;20014;-65
2023/09/25 02:32:27;;;;;;;8.90;1.20;;;;;;;19.14;96.12;101131.56;7353225;19;20897;-65
2023/09/25 02:34:54;;;;;;;6.32;1.35;;;;;;;19.13;96.15;101137.91;7357316;19;20014;-65
2023/09/25 02:37:21;;;;;;;7.72;1.58;;;;;;;19.08;95.39;101127.03;7357191;19;20021;-65
2023/09/25 02:39:48;;;;;;;7.05;1.80;;;;;;;19.06;96.45;101126.41;7354282;19;20025;-65
2023/09/25 02:42:15;;;;;;;7.45;1.35;;;;;;;19.07;96.68;101130.72;7354267;19;20011;-65
2023/09/25 02:44:42;;;;;;;7.38;1.23;;;;;;;19.09;97.60;101131.34;7364758;19;20018;-64
2023/09/25 02:47:09;;;;;;;13.27;2.50;;;;;;;19.09;97.38;101130.53;7357213;19;20024;-65
2023/09/25 02:49:36;;;;;;;8.65;1.52;;;;;;;19.10;97.38;101130.31;7336401;19;20098;-64
2023/09/25 02:52:03;;;;;;;8.32;1.38;;;;;;;19.05;96.75;101142.59;7354041;19;20026;-65
2023/09/25 02:54:30;;;;;;;9.43;2.15;;;;;;;19.07;97.81;101151.22;7364527;19;20097;-64
2023/09/25 02:56:58;;;;;;;9.00;1.70;;;;;;;19.04;98.21;101141.78;7358554;19;20642;-65
2023/09/25 02:59:25;;;;;;;6.63;1.30;;;;;;;19.03;98.55;101150.00;7356106;19;20753;-64
2023/09/25 03:01:52;;;;;;;12.85;1.73;;;;;;;19.02;98.99;101146.50;7363203;19;20327;-65
2023/09/25 03:04:19;;;;;;;10.93;1.42;;;;;;;18.99;98.64;101148.75;7360508;19;20026;-63
2023/09/25 03:06:46;;;;;;;9.15;1.75;;;;;;;19.03;99.63;101142.00;7358705;19;20018;-66
2023/09/25 03:09:13;;;;;;;7.28;1.20;;;;;;;18.97;98.85;101151.63;7368262;19;20395;-65
2023/09/25 03:11:40;;;;;;;9.18;1.58;;;;;;;18.97;99.25;101145.44;7362091;19;20626;-68
2023/09/25 03:14:07;;;;;;;8.10;1.17;;;;;;;18.97;99.18;101158.78;7363060;19;21750;-64
2023/09/25 03:16:34;;;;;;;7.82;0.95;;;;;;;18.96;99.52;101157.97;7346676;19;20083;-64
2023/09/25 03:19:01;;;;;;;6.25;1.20;;;;;;;18.97;99.81;101164.13;7361565;19;20037;-64
2023/09/25 03:21:29;;;;;;;7.30;1.10;;;;;;;18.98;100.00;101165.78;7363701;19;20030;-63
2023/09/25 03:23:56;;;;;;;12.07;1.90;;;;;;;19.02;100.00;101167.00;7360569;19;20010;-65
2023/09/25 03:26:23;;;;;;;7.43;1.50;;;;;;;19.04;100.00;101175.66;7356466;19;20861;-65
2023/09/25 03:28:50;;;;;;;7.10;1.10;;;;;;;19.01;100.00;101170.69;7359744;19;20011;-65
2023/09/25 03:31:20;;;;;;;6.70;1.77;;;;;;;18.98;100.00;101174.59;7366151;19;20049;-65
2023/09/25 03:33:47;;;;;;;11.98;2.97;;;;;;;19.00;100.00;101177.88;7360967;19;20045;-65
2023/09/25 03:36:14;;;;;;;5.00;1.08;;;;;;;18.97;100.00;101166.78;7361003;19;21711;-65
2023/09/25 03:38:43;;;;;;;7.22;1.85;;;;;;;19.00;100.00;101174.38;7362185;19;20048;-66
2023/09/25 03:41:15;;;;;;;7.47;1.20;;;;;;;18.97;100.00;101180.94;7358793;19;21411;-64
2023/09/25 03:43:42;;;;;;;8.35;1.20;;;;;;;18.97;100.00;101175.63;7356357;19;20010;-64
2023/09/25 03:46:09;;;;;;;7.97;1.65;;;;;;;19.00;100.00;101167.19;7357375;19;20010;-64
2023/09/25 03:48:36;;;;;;;7.55;1.10;;;;;;;19.01;100.00;101171.53;7362117;19;20609;-65
2023/09/25 03:51:03;;;;;;;9.02;1.20;;;;;;;19.03;100.00;101172.16;7351442;19;20025;-64
2023/09/25 03:53:31;;;;;;;6.35;1.67;;;;;;;19.04;100.00;101172.97;7356969;19;20019;-65
2023/09/25 03:55:58;;;;;;;8.25;1.20;;;;;;;19.03;100.00;101168.66;7360737;19;20018;-64
2023/09/25 03:58:25;;;;;;;7.95;0.90;;;;;;;19.05;100.00;101178.09;7357782;19;20073;-64
2023/09/25 04:00:52;;;;;;;6.85;1.35;;;;;;;19.03;100.00;101182.00;7356493;19;20602;-65
2023/09/25 04:03:19;;;;;;;4.90;1.00;;;;;;;19.01;100.00;101176.03;7360208;19;20021;-64
2023/09/25 04:05:47;;;;;;;8.93;1.08;;;;;;;18.98;100.00;101192.44;7357223;19;20082;-67
2023/09/25 04:08:13;;;;;;;4.68;1.30;;;;;;;18.96;100.00;101195.31;7340524;19;20019;-64
2023/09/25 04:10:41;;;;;;;5.88;1.63;;;;;;;18.98;100.00;101192.44;7359963;19;20735;-67
2023/09/25 04:13:08;;;;;;;6.32;1.42;;;;;;;18.98;100.00;101185.28;7362300;19;20025;-65
2023/09/25 04:15:35;;;;;;;11.02;1.58;;;;;;;18.97;100.00;101191.63;7358998;19;20019;-65
2023/09/25 04:18:05;;;;;;;7.05;1.63;;;;;;;18.97;100.00;101196.13;7359374;19;20014;-65
2023/09/25 04:20:33;;;;;;;7.85;1.00;;;;;;;18.94;100.00;101197.38;7359361;19;20011;-64
2023/09/25 04:23:00;;;;;;;9.32;1.00;;;;;;;18.92;100.00;101193.22;7358869;19;20493;-66
2023/09/25 04:25:27;;;;;;;5.78;1.33;;;;;;;18.92;100.00;101194.06;7361056;19;20497;-64
2023/09/25 04:27:55;;;;;;;4.82;1.20;;;;;;;18.90;100.00;101198.75;7354446;19;20014;-65
2023/09/25 04:30:23;;;;;;;5.38;0.90;;;;;;;18.89;100.00;101207.81;7358979;19;20580;-65
2023/09/25 04:32:54;;;;;;;8.75;1.27;;;;;;;18.86;100.00;101210.03;7357980;19;20133;-64
2023/09/25 04:35:23;;;;;;;7.90;0.75;;;;;;;18.84;100.00;101212.09;7343092;19;20192;-64
2023/09/25 04:37:51;;;;;;;10.45;1.92;;;;;;;18.83;100.00;101210.44;7358404;19;20069;-64
2023/09/25 04:42:46;;;;;;;7.30;0.95;;;;;;;18.82;100.00;101211.44;7354784;19;20688;-64
2023/09/25 04:45:13;;;;;;;7.57;1.20;;;;;;;18.83;100.00;101219.25;7359569;19;20014;-64
2023/09/25 04:47:41;;;;;;;5.95;0.98;;;;;;;18.79;100.00;101224.13;7356641;19;20486;-64
2023/09/25 04:50:09;;;;;;;6.00;1.20;;;;;;;18.80;100.00;101227.63;7358543;19;21324;-65
2023/09/25 04:52:40;;;;;;;7.22;1.48;;;;;;;18.80;100.00;101224.97;7349592;19;20018;-65
2023/09/25 04:55:10;;;;;;;7.65;1.20;;;;;;;18.76;100.00;101227.22;7358716;19;20538;-65
2023/09/25 04:57:42;;;;;;;7.22;0.98;;;;;;;18.74;100.00;101217.78;7354337;19;20094;-65
2023/09/25 05:00:22;;;;;;;9.13;0.77;;;;;;;18.71;100.00;101218.16;7345584;19;20014;-64
2023/09/25 05:02:50;;;;;;;10.05;1.23;;;;;;;18.68;100.00;101226.56;7358615;19;20018;-65
2023/09/25 05:05:18;;;;;;;6.40;1.02;;;;;;;18.67;100.00;101232.91;7355737;19;20010;-65
2023/09/25 05:07:49;;;;;;;10.18;0.80;;;;;;;18.65;100.00;101238.41;7353246;19;20716;-65
2023/09/25 05:10:22;;;;;;;4.75;0.90;;;;;;;18.64;100.00;101241.28;7353458;19;20084;-65
2023/09/25 05:12:49;;;;;;;;;;;;;;;18.61;100.00;101239.81;7354304;19;20030;-65
2023/09/25 05:15:18;;;;;;;6.40;0.70;;;;;;;18.57;100.00;101248.41;7357156;19;20009;-65
2023/09/25 05:17:46;;;;;;;9.55;1.10;;;;;;;18.51;100.00;101249.97;7356067;19;20319;-66
2023/09/25 05:20:18;;;;;;;5.57;0.90;;;;;;;18.49;100.00;101252.00;7356154;19;20393;-65
2023/09/25 05:22:46;;;;;;;6.90;0.82;;;;;;;18.49;100.00;101252.00;7356909;19;20014;-65
2023/09/25 05:25:14;;;;;;;9.65;1.08;;;;;;;18.51;100.00;101251.81;7356491;19;20360;-66
2023/09/25 05:27:44;;;;;;;8.52;1.20;;;;;;;18.54;100.00;101259.47;7331691;19;20610;-65
2023/09/25 05:30:12;;;;;;;8.73;1.15;;;;;;;18.53;100.00;101260.47;7357349;19;20830;-64
2023/09/25 05:32:43;;;;;;;11.77;1.77;;;;;;;18.57;100.00;101261.75;7354245;19;21138;-66
2023/09/25 05:35:10;;;;;;;9.32;1.15;;;;;;;18.57;100.00;101264.41;7356402;19;20817;-65
2023/09/25 05:37:37;;;;;;;10.68;1.27;;;;;;;18.55;100.00;101256.59;7356506;19;20014;-65
2023/09/25 05:40:05;;;;;;;7.18;1.42;;;;;;;18.60;100.00;101270.16;7354660;19;20018;-65
2023/09/25 05:42:32;;;;;;;12.75;2.55;;;;;;;18.58;100.00;101266.88;7353347;19;20082;-66
2023/09/25 05:45:00;;;;;;;6.57;1.10;;;;;;;18.56;100.00;101271.56;7356555;19;20011;-65
2023/09/25 05:47:27;;;;;;;6.70;1.13;;;;;;;18.52;100.00;101264.13;7354997;19;20739;-66
2023/09/25 05:49:54;;;;;;;9.57;1.23;;;;;;;18.52;100.00;101278.28;7354875;19;20014;-65
2023/09/25 05:52:21;;;;;;;7.80;1.25;;;;;;;18.51;100.00;101279.31;7330639;19;20049;-65
2023/09/25 05:54:49;;;;;;;5.20;1.20;;;;;;;18.52;100.00;101283.63;7354042;19;20514;-65
2023/09/25 05:57:16;;;;;;;5.40;1.13;;;;;;;18.51;100.00;101281.97;7352297;19;20011;-64
2023/09/25 05:59:43;;;;;;;8.68;1.35;;;;;;;18.51;100.00;101281.97;7355979;19;20019;-65
2023/09/25 06:02:10;;;;;;;8.95;1.40;;;;;;;18.54;100.00;101286.13;7355880;19;20640;-65
2023/09/25 06:04:38;;;;;;;8.73;1.40;;;;;;;18.54;100.00;101292.25;7353654;19;20077;-66
2023/09/25 06:07:06;;;;;;;9.77;1.30;;;;;;;18.59;100.00;101292.50;7352352;19;20109;-65
2023/09/25 06:09:33;;;;;;;10.80;1.42;;;;;;;18.61;100.00;101300.31;7355575;19;20027;-64
2023/09/25 06:12:01;;;;;;;13.88;1.52;;;;;;;18.62;100.00;101307.31;7352013;19;20762;-64
2023/09/25 06:14:28;;;;;;;6.50;1.02;;;;;;;18.60;100.00;101309.31;7353425;19;20015;-65
2023/09/25 06:16:57;;;;;;;7.68;1.08;;;;;;;18.59;100.00;101313.84;7353204;19;20914;-65
2023/09/25 06:19:25;;;;;;;6.13;1.17;;;;;;;18.59;100.00;101315.69;7342667;19;20017;-65
2023/09/25 06:21:53;;;;;;;6.25;1.10;;;;;;;18.60;100.00;101312.00;7352105;19;20021;-65
2023/09/25 06:24:21;;;;;;;12.10;1.75;;;;;;;18.63;100.00;101314.28;7355397;19;20024;-64
2023/09/25 06:26:49;;;;;;;7.55;1.30;;;;;;;18.65;100.00;101318.41;7350329;19;20049;-67
2023/09/25 06:29:17;;;;;;;9.23;1.08;;;;;;;18.66;100.00;101321.88;7352680;19;20400;-65
2023/09/25 06:31:44;;;;;;;9.18;1.17;;;;;;;18.64;100.00;101331.94;7351966;19;20526;-65
2023/09/25 06:34:26;;;;;;;6.97;1.30;;;;;;;18.64;100.00;101329.28;7355228;19;20018;-66
2023/09/25 06:36:54;;;;;;;7.55;1.30;;;;;;;18.64;100.00;101331.94;7350864;19;20026;-64
2023/09/25 06:39:23;;;;;;;9.65;1.20;;;;;;;18.67;100.00;101331.53;7354578;19;20021;-65
2023/09/25 06:41:50;;;;;;;4.85;1.30;;;;;;;18.67;100.00;101337.69;7348102;19;20068;-65
2023/09/25 06:44:19;;;;;;;11.57;1.77;;;;;;;18.69;100.00;101335.66;7334127;19;20055;-65
2023/09/25 06:46:46;;;;;;;12.57;1.42;;;;;;;18.69;100.00;101329.53;7354258;19;20037;-64
2023/09/25 06:49:13;;;;;;;6.32;1.70;;;;;;;18.72;100.00;101329.13;7353236;19;20031;-66
2023/09/25 06:51:40;;;;;;;11.77;1.20;;;;;;;18.70;100.00;101339.97;7355557;19;20777;-65
2023/09/25 06:54:08;;;;;;;12.75;1.75;;;;;;;18.70;100.00;101341.81;7347114;19;20031;-66
2023/09/25 06:56:36;;;;;;;7.43;1.30;;;;;;;18.70;100.00;101341.81;7349651;19;20626;-66
2023/09/25 06:59:03;;;;;;;9.95;1.38;;;;;;;18.69;100.00;101346.31;7353180;19;20010;-65
2023/09/25 07:01:31;;;;;;;8.68;1.27;;;;;;;18.70;100.00;101353.31;7354032;19;20053;-65
2023/09/25 07:04:14;;;;;;;9.57;1.45;;;;;;;18.69;100.00;101356.19;7353141;19;21848;-65
2023/09/25 07:06:55;;;;;;;7.80;1.40;;;;;;;18.71;100.00;101370.13;7353165;19;20034;-65
2023/09/25 07:09:22;;;;;;;9.10;1.45;;;;;;;18.65;100.00;101373.56;7355045;19;20022;-65
2023/09/25 07:11:50;;;;;;;9.18;1.60;;;;;;;18.62;100.00;101376.63;7338774;19;20014;-65
2023/09/25 07:14:18;;;;;;;8.15;1.92;;;;;;;18.65;100.00;101374.38;7353043;19;20338;-65
2023/09/25 07:16:45;;;;;;;9.98;1.20;;;;;;;18.68;100.00;101378.53;7352367;19;20003;-65
2023/09/25 07:19:12;;;;;;;10.27;1.63;;;;;;;18.64;100.00;101374.59;7355026;19;20015;-65
2023/09/25 07:21:40;;;;;;;6.03;1.10;;;;;;;18.69;100.00;101380.97;7352483;19;20021;-65
2023/09/25 07:24:10;;;;;;;12.68;1.40;;;;;;;18.74;100.00;101378.56;7354093;19;20021;-64
2023/09/25 07:26:37;;;;;;;10.57;1.45;;;;;;;18.74;100.00;101388.44;7351699;19;20010;-66
2023/09/25 07:29:04;;;;;;;8.50;0.90;;;;;;;18.68;100.00;101387.34;7356764;19;20051;-65
2023/09/25 07:31:31;;;;;;;14.73;1.25;;;;;;;18.66;100.00;101386.69;7362235;19;20026;-65
2023/09/25 07:33:58;;;;;;;13.23;1.48;;;;;;;18.66;100.00;101391.22;7360908;19;20014;-64
2023/09/25 07:36:26;;;;;;;11.25;1.35;;;;;;;18.66;100.00;101408.03;7358759;19;20078;-65
2023/09/25 07:38:54;;;;;;;9.27;1.08;;;;;;;18.67;100.00;101408.88;7359051;19;20025;-64
2023/09/25 07:41:23;;;;;;;5.65;1.30;;;;;;;18.68;100.00;101407.84;7357573;19;20044;-66
2023/09/25 07:43:54;;;;;;;15.82;1.88;;;;;;;18.61;100.00;101410.44;7335382;19;21807;-64
2023/09/25 07:46:25;;;;;;;12.27;1.25;;;;;;;18.59;100.00;101412.47;7357916;19;20093;-64
2023/09/25 07:48:53;;;;;;;12.15;1.33;;;;;;;18.58;99.96;101410.00;7358001;19;20021;-64
2023/09/25 07:51:24;;;;;;;13.60;1.27;;;;;;;18.54;99.94;101414.09;7358987;19;20019;-64
2023/09/25 07:53:58;;;;;;;11.57;1.20;;;;;;;18.50;99.63;101412.75;7356831;19;20488;-65
2023/09/25 07:56:26;;;;;;;14.52;1.55;;;;;;;18.53;99.69;101425.72;7351090;19;20015;-66
2023/09/25 07:58:55;;;;;;;10.82;1.00;;;;;;;18.58;100.00;101426.00;7356401;19;20029;-65
2023/09/25 08:01:25;;;;;;;13.15;2.55;;;;;;;18.64;100.00;101425.25;7360616;19;20182;-65
2023/09/25 08:03:52;;;;;;;12.73;1.48;;;;;;;18.71;99.69;101426.13;7358002;19;20391;-65
2023/09/25 08:06:21;;;;;;;11.45;1.42;;;;;;;18.76;98.64;101432.53;7361724;19;20539;-65
2023/09/25 08:08:48;;;;;;;12.65;1.50;;;;;;;18.86;98.06;101439.38;7357442;19;20752;-66
2023/09/25 08:11:20;;;;;;;14.82;1.65;;;;;;;18.87;96.24;101435.69;7338311;19;20015;-64
2023/09/25 08:13:47;;;;;;;17.10;1.77;;;;;;;18.87;95.29;101433.03;7356145;19;20021;-66
2023/09/25 08:16:16;;;;;;;8.85;1.23;;;;;;;18.92;95.82;101439.44;7361598;19;20014;-66
2023/09/25 08:18:45;;;;;;;13.73;1.20;;;;;;;19.21;96.65;101451.78;7360393;19;20572;-65
2023/09/25 08:21:16;;;;;;;13.43;1.40;;;;;;;19.33;98.47;101444.91;7359366;19;20658;-65
2023/09/25 08:23:43;;;;;;;13.23;1.38;;;;;;;19.40;98.88;101444.94;7356574;19;20018;-66
2023/09/25 08:26:10;;;;;;;14.93;1.42;;;;;;;19.39;97.20;101444.13;7357849;19;20615;-65
2023/09/25 08:28:37;;;;;;;12.25;1.52;;;;;;;19.46;97.15;101452.19;7355287;19;20330;-66
2023/09/25 08:31:04;;;;;;;14.88;1.60;;;;;;;19.49;97.12;101462.50;7357541;19;20089;-66
2023/09/25 08:33:31;;;;;;;16.42;1.45;;;;;;;19.49;95.51;101457.16;7357255;19;20051;-66
2023/09/25 08:35:59;;;;;;;17.13;1.50;;;;;;;19.53;94.45;101450.41;7345151;19;20011;-66
2023/09/25 08:38:26;;;;;;;11.32;1.10;;;;;;;19.51;92.64;101455.91;7360547;19;20380;-65
2023/09/25 08:40:53;;;;;;;26.08;2.25;;;;;;;19.49;91.55;101457.97;7360346;19;20035;-66
2023/09/25 08:43:21;;;;;;;14.10;1.50;;;;;;;19.52;91.08;101459.41;7359361;19;20010;-65
2023/09/25 08:45:50;;;;;;;12.35;1.92;;;;;;;19.49;90.79;101463.31;7362900;19;20022;-64
2023/09/25 08:48:17;;;;;;;9.20;1.00;;;;;;;19.46;90.58;101461.03;7361044;19;20421;-64
2023/09/25 08:50:46;;;;;;;11.80;1.25;;;;;;;19.45;90.87;101469.25;7362589;19;21693;-64
2023/09/25 08:53:13;;;;;;;12.80;1.20;;;;;;;19.43;89.44;101458.72;7361530;19;20027;-65
2023/09/25 08:55:42;;;;;;;14.98;1.63;;;;;;;19.42;89.96;101458.91;7355689;19;20106;-65
2023/09/25 08:58:10;;;;;;;12.32;1.33;;;;;;;19.42;89.46;101454.41;7355155;19;20018;-65
2023/09/25 09:00:40;;;;;;;13.23;1.73;;;;;;;19.44;89.88;101464.88;7360758;19;20015;-65
2023/09/25 09:03:07;;;;;;;20.08;1.88;;;;;;;19.41;88.49;101459.91;7347866;19;20014;-65
2023/09/25 09:05:35;;;;;;;11.68;1.15;;;;;;;19.43;89.54;101471.25;7363023;19;20038;-66
2023/09/25 09:08:08;;;;;;;11.27;1.08;;;;;;;19.46;89.46;101477.03;7361106;19;20027;-65
2023/09/25 09:10:39;;;;;;;8.05;1.00;;;;;;;19.38;85.92;101471.84;7357697;19;20125;-64
2023/09/25 09:13:12;;;;;;;11.43;1.20;;;;;;;19.40;86.25;101476.97;7358165;19;20344;-65
2023/09/25 09:15:40;;;;;;;9.65;1.10;;;;;;;19.42;87.27;101482.94;7359556;19;20015;-64
2023/09/25 09:18:19;;;;;;;10.75;0.95;;;;;;;19.45;87.16;101479.94;7357471;19;20078;-65
2023/09/25 09:20:52;;;;;;;10.23;1.95;;;;;;;19.46;85.95;101486.88;7361207;19;21010;-65
2023/09/25 09:23:20;;;;;;;17.42;1.10;;;;;;;19.48;85.25;101483.03;7358665;19;20710;-65
2023/09/25 09:25:48;;;;;;;9.65;0.80;;;;;;;19.49;83.15;101497.19;7359878;19;21646;-66
2023/09/25 09:28:15;;;;;;;11.32;1.05;;;;;;;19.48;83.02;101500.88;7357067;19;20131;-65
2023/09/25 09:30:42;;;;;;;9.43;1.02;;;;;;;19.48;82.25;101500.88;7362537;19;20015;-66
2023/09/25 09:33:10;;;;;;;9.48;1.45;;;;;;;19.51;82.21;101495.13;7356438;19;20015;-65
2023/09/25 09:35:37;;;;;;;11.77;0.93;;;;;;;19.52;81.76;101494.13;7356923;19;20600;-65
2023/09/25 09:38:05;;;;;;;11.20;1.10;;;;;;;19.55;82.26;101510.59;7356631;19;20022;-65
2023/09/25 09:40:32;;;;;;;12.70;1.23;;;;;;;19.60;83.02;101516.19;7356653;19;20113;-65
2023/09/25 09:43:02;;;;;;;15.27;0.80;;;;;;;19.59;80.65;101511.03;7353470;19;21816;-65
2023/09/25 09:45:30;;;;;;;8.85;0.80;;;;;;;19.65;81.12;101520.94;7356140;19;20016;-65
2023/09/25 09:48:00;;;;;;;11.35;1.20;;;;;;;19.67;80.63;101513.53;7355259;19;20514;-66
2023/09/25 09:50:29;;;;;;;13.43;1.60;;;;;;;19.76;81.45;101507.00;7356967;19;20283;-66
2023/09/25 09:52:56;;;;;;;16.38;1.40;;;;;;;19.74;79.20;101516.25;7351173;19;20105;-65
2023/09/25 09:55:26;;;;;;;11.77;2.15;;;;;;;19.78;80.54;101523.69;7353986;19;20089;-64
2023/09/25 09:57:54;;;;;;;8.90;0.85;;;;;;;19.79;78.71;101513.84;7347980;19;20015;-65
2023/09/25 10:00:21;;;;;;;10.43;1.05;;;;;;;19.84;79.45;101520.25;7358367;19;20094;-64
2023/09/25 10:02:50;;;;;;;9.55;1.20;;;;;;;19.90;80.28;101521.31;7356122;19;20014;-66
2023/09/25 10:05:18;;;;;;;8.85;2.00;;;;;;;19.95;80.32;101522.34;7343550;19;20492;-66
2023/09/25 10:08:09;;;;;;;11.23;1.08;;;;;;;19.96;79.15;101528.53;7357201;19;20475;-66
2023/09/25 10:10:38;;;;;;;12.77;1.10;;;;;;;19.94;78.94;101522.56;7355313;19;20018;-65
2023/09/25 10:13:29;;;;;;;10.30;1.00;;;;;;;19.98;79.76;101529.13;7354594;19;20013;-65
2023/09/25 10:15:58;;;;;;;8.45;1.02;;;;;;;19.97;77.89;101522.16;7357562;19;20026;-65
2023/09/25 10:18:29;;;;;;;8.13;0.90;;;;;;;20.01;78.08;101518.88;7353575;19;20014;-65
2023/09/25 10:21:10;;;;;;;6.47;0.80;;;;;;;20.03;77.34;101518.69;7356803;19;20022;-65
2023/09/25 10:23:50;;;;;;;6.93;1.00;;;;;;;20.07;77.69;101519.94;7355642;19;20011;-65
2023/09/25 10:26:33;;;;;;;9.55;0.70;;;;;;;20.09;75.43;101515.22;7351915;19;20280;-66
2023/09/25 10:29:16;;;;;;;5.88;0.60;;;;;;;20.14;75.82;101517.31;7351244;19;20486;-65
2023/09/25 10:31:47;;;;;;;13.00;1.48;;;;;;;20.16;74.81;101518.78;7354219;19;20026;-65
2023/09/25 10:34:22;;;;;;;6.10;0.73;;;;;;;20.23;74.66;101518.78;7349231;19;20015;-65
2023/09/25 10:37:00;;;;;;;10.57;0.90;;;;;;;20.27;73.78;101526.19;7351450;19;20022;-65
2023/09/25 10:39:32;;;;;;;6.55;1.05;;;;;;;20.31;71.58;101524.00;7352637;19;20017;-64
2023/09/25 10:42:07;;;;;;;10.07;0.90;;;;;;;20.28;70.92;101519.84;7350835;19;20681;-66
2023/09/25 10:44:55;;;;;;;14.52;1.33;;;;;;;20.33;72.35;101524.63;7356184;19;20033;-64
2023/09/25 10:47:37;;;;;;;8.20;1.10;;;;;;;20.39;73.52;101523.81;7345295;19;20006;-65
2023/09/25 10:50:11;;;;;;;11.13;1.55;;;;;;;20.46;74.45;101535.38;7349779;19;20038;-65
2023/09/25 10:52:39;;;;;;;8.90;0.90;;;;;;;20.47;73.69;101532.47;7351399;19;20082;-65
2023/09/25 10:55:21;;;;;;;5.75;0.60;;;;;;;20.54;72.53;101523.66;7347885;19;20082;-66
2023/09/25 10:57:51;;;;;;;10.38;0.90;;;;;;;20.59;72.17;101522.03;7344867;19;20039;-66
2023/09/25 11:00:19;;;;;;;8.73;1.25;;;;;;;20.66;71.42;101533.59;7347801;19;20512;-65
2023/09/25 11:02:51;;;;;;;9.57;0.90;;;;;;;20.72;70.30;101529.28;7351045;19;20018;-64
2023/09/25 11:05:24;;;;;;;10.70;1.00;;;;;;;20.75;70.43;101545.75;7360224;19;20094;-65
2023/09/25 11:08:00;;;;;;;8.20;0.95;;;;;;;20.82;71.06;101541.25;7357433;19;20033;-65
2023/09/25 11:10:34;;;;;;;10.43;0.73;;;;;;;20.88;70.83;101552.97;7360525;19;20379;-65
2023/09/25 11:13:06;;;;;;;6.63;0.73;;;;;;;20.87;69.41;101544.16;7353333;19;20026;-66
2023/09/25 11:15:49;;;;;;;11.00;0.82;;;;;;;20.85;70.31;101543.50;7360096;19;20347;-65
2023/09/25 11:18:20;;;;;;;10.05;0.80;;;;;;;20.87;69.17;101536.13;7355798;19;20022;-64
2023/09/25 11:21:03;;;;;;;6.15;1.17;;;;;;;20.87;67.22;101544.16;7355359;19;20048;-64
2023/09/25 11:23:49;;;;;;;5.15;1.15;;;;;;;20.91;67.66;101537.34;7358781;19;20022;-66
2023/09/25 11:26:19;;;;;;;11.27;0.93;;;;;;;20.97;69.35;101549.09;7358837;19;20020;-66
2023/09/25 11:28:54;;;;;;;12.40;1.30;;;;;;;21.00;67.33;101546.00;7353487;19;20011;-66
2023/09/25 11:31:23;;;;;;;8.77;1.08;;;;;;;21.02;64.13;101543.13;7358866;19;20011;-66
2023/09/25 11:33:52;;;;;;;5.28;0.60;;;;;;;21.03;64.12;101537.56;7359601;19;20006;-65